sensor_id;sensor_type;location;lat;lon;timestamp;P1;durP1;ratioP1;P2;durP2;ratioP2
30010;SDS011;16851;53.564;8.112;2023-08-30T00:02:57;6.25;;;3.42;;
30010;SDS011;16851;53.564;8.112;2023-08-30T00:07:59;5.55;;;3.60;;
30010;SDS011;16851;53.564;8.112;2023-08-30T00:13:01;5.55;;;3.85;;
30010;SDS011;16851;53.564;8.112;2023-08-30T00:18:05;4.50;;;3.53;;
30010;SDS011;16851;53.564;8.112;2023-08-30T00:23:08;5.30;;;3.47;;
30010;SDS011;16851;53.564;8.112;2023-08-30T00:28:12;6.90;;;3.45;;
30010;SDS011;16851;53.564;8.112;2023-08-30T00:33:16;4.95;;;3.75;;
30010;SDS011;16851;53.564;8.112;2023-08-30T00:38:20;3.97;;;3.55;;
30010;SDS011;16851;53.564;8.112;2023-08-30T00:43:24;8.77;;;3.83;;
30010;SDS011;16851;53.564;8.112;2023-08-30T00:48:26;6.60;;;4.15;;
30010;SDS011;16851;53.564;8.112;2023-08-30T00:53:28;7.13;;;4.00;;
30010;SDS011;16851;53.564;8.112;2023-08-30T00:58:30;4.63;;;4.10;;
30010;SDS011;16851;53.564;8.112;2023-08-30T01:03:36;4.80;;;3.85;;
30010;SDS011;16851;53.564;8.112;2023-08-30T01:08:42;7.18;;;5.30;;
30010;SDS011;16851;53.564;8.112;2023-08-30T01:13:48;6.63;;;5.38;;
30010;SDS011;16851;53.564;8.112;2023-08-30T01:18:55;8.73;;;6.82;;
30010;SDS011;16851;53.564;8.112;2023-08-30T01:24:00;11.10;;;7.25;;
30010;SDS011;16851;53.564;8.112;2023-08-30T01:29:05;9.18;;;7.30;;
30010;SDS011;16851;53.564;8.112;2023-08-30T01:34:07;7.93;;;6.97;;
30010;SDS011;16851;53.564;8.112;2023-08-30T01:39:12;8.88;;;7.35;;
30010;SDS011;16851;53.564;8.112;2023-08-30T01:44:17;9.63;;;6.70;;
30010;SDS011;16851;53.564;8.112;2023-08-30T01:49:21;8.18;;;6.75;;
30010;SDS011;16851;53.564;8.112;2023-08-30T01:54:25;9.10;;;6.60;;
30010;SDS011;16851;53.564;8.112;2023-08-30T01:59:29;8.30;;;6.95;;
30010;SDS011;16851;53.564;8.112;2023-08-30T02:04:34;8.45;;;6.65;;
30010;SDS011;16851;53.564;8.112;2023-08-30T02:09:42;9.57;;;6.53;;
30010;SDS011;16851;53.564;8.112;2023-08-30T02:14:57;8.02;;;6.70;;
30010;SDS011;16851;53.564;8.112;2023-08-30T02:20:00;10.27;;;6.78;;
30010;SDS011;16851;53.564;8.112;2023-08-30T02:25:02;11.90;;;7.10;;
30010;SDS011;16851;53.564;8.112;2023-08-30T02:30:07;9.05;;;7.47;;
30010;SDS011;16851;53.564;8.112;2023-08-30T02:35:09;9.38;;;8.40;;
30010;SDS011;16851;53.564;8.112;2023-08-30T02:40:12;10.73;;;9.20;;
30010;SDS011;16851;53.564;8.112;2023-08-30T02:45:14;12.02;;;9.90;;
30010;SDS011;16851;53.564;8.112;2023-08-30T02:50:25;12.70;;;10.32;;
30010;SDS011;16851;53.564;8.112;2023-08-30T02:55:27;11.15;;;9.93;;
30010;SDS011;16851;53.564;8.112;2023-08-30T03:00:29;12.57;;;10.88;;
30010;SDS011;16851;53.564;8.112;2023-08-30T03:05:33;15.07;;;12.15;;
30010;SDS011;16851;53.564;8.112;2023-08-30T03:10:36;15.88;;;13.55;;
30010;SDS011;16851;53.564;8.112;2023-08-30T03:15:41;17.25;;;14.27;;
30010;SDS011;16851;53.564;8.112;2023-08-30T03:20:46;17.35;;;14.90;;
30010;SDS011;16851;53.564;8.112;2023-08-30T03:25:50;16.95;;;15.27;;
30010;SDS011;16851;53.564;8.112;2023-08-30T03:30:52;17.98;;;14.65;;
30010;SDS011;16851;53.564;8.112;2023-08-30T03:35:58;20.52;;;16.90;;
30010;SDS011;16851;53.564;8.112;2023-08-30T03:41:00;24.10;;;17.20;;
30010;SDS011;16851;53.564;8.112;2023-08-30T03:46:02;19.63;;;17.52;;
30010;SDS011;16851;53.564;8.112;2023-08-30T03:51:09;23.80;;;18.92;;
30010;SDS011;16851;53.564;8.112;2023-08-30T03:56:19;23.00;;;19.08;;
30010;SDS011;16851;53.564;8.112;2023-08-30T04:01:28;19.90;;;17.80;;
30010;SDS011;16851;53.564;8.112;2023-08-30T04:06:30;23.10;;;19.75;;
30010;SDS011;16851;53.564;8.112;2023-08-30T04:11:34;26.02;;;20.60;;
30010;SDS011;16851;53.564;8.112;2023-08-30T04:16:38;23.40;;;20.80;;
30010;SDS011;16851;53.564;8.112;2023-08-30T04:21:42;24.77;;;20.80;;
30010;SDS011;16851;53.564;8.112;2023-08-30T04:26:44;25.60;;;22.27;;
30010;SDS011;16851;53.564;8.112;2023-08-30T04:31:49;28.10;;;23.33;;
30010;SDS011;16851;53.564;8.112;2023-08-30T04:36:53;26.25;;;21.67;;
30010;SDS011;16851;53.564;8.112;2023-08-30T04:41:57;25.92;;;22.45;;
30010;SDS011;16851;53.564;8.112;2023-08-30T04:47:01;24.20;;;21.30;;
30010;SDS011;16851;53.564;8.112;2023-08-30T04:52:08;25.90;;;23.02;;
30010;SDS011;16851;53.564;8.112;2023-08-30T04:57:13;27.80;;;23.45;;
30010;SDS011;16851;53.564;8.112;2023-08-30T05:02:15;25.00;;;22.27;;
30010;SDS011;16851;53.564;8.112;2023-08-30T05:07:33;26.27;;;22.52;;
30010;SDS011;16851;53.564;8.112;2023-08-30T05:12:35;25.88;;;22.13;;
30010;SDS011;16851;53.564;8.112;2023-08-30T05:17:37;29.08;;;22.27;;
30010;SDS011;16851;53.564;8.112;2023-08-30T05:22:39;29.95;;;22.55;;
30010;SDS011;16851;53.564;8.112;2023-08-30T05:27:41;26.30;;;21.38;;
30010;SDS011;16851;53.564;8.112;2023-08-30T05:32:43;22.67;;;20.25;;
30010;SDS011;16851;53.564;8.112;2023-08-30T05:38:04;24.50;;;20.60;;
30010;SDS011;16851;53.564;8.112;2023-08-30T05:43:36;24.77;;;19.80;;
30010;SDS011;16851;53.564;8.112;2023-08-30T05:48:40;21.27;;;17.40;;
30010;SDS011;16851;53.564;8.112;2023-08-30T05:53:42;18.08;;;15.85;;
30010;SDS011;16851;53.564;8.112;2023-08-30T05:58:44;21.38;;;17.65;;
30010;SDS011;16851;53.564;8.112;2023-08-30T06:03:48;22.58;;;17.40;;
30010;SDS011;16851;53.564;8.112;2023-08-30T06:08:50;20.42;;;16.98;;
30010;SDS011;16851;53.564;8.112;2023-08-30T06:13:54;21.13;;;18.40;;
30010;SDS011;16851;53.564;8.112;2023-08-30T06:18:58;21.10;;;16.92;;
30010;SDS011;16851;53.564;8.112;2023-08-30T06:24:00;23.23;;;18.70;;
30010;SDS011;16851;53.564;8.112;2023-08-30T06:29:02;18.45;;;15.85;;
30010;SDS011;16851;53.564;8.112;2023-08-30T06:34:06;19.25;;;15.68;;
30010;SDS011;16851;53.564;8.112;2023-08-30T06:39:10;16.60;;;14.27;;
30010;SDS011;16851;53.564;8.112;2023-08-30T06:44:12;18.73;;;15.55;;
30010;SDS011;16851;53.564;8.112;2023-08-30T06:49:13;25.13;;;13.75;;
30010;SDS011;16851;53.564;8.112;2023-08-30T06:54:18;20.08;;;13.90;;
30010;SDS011;16851;53.564;8.112;2023-08-30T06:59:20;18.92;;;13.18;;
30010;SDS011;16851;53.564;8.112;2023-08-30T07:04:22;16.52;;;11.43;;
30010;SDS011;16851;53.564;8.112;2023-08-30T07:09:26;11.43;;;9.85;;
30010;SDS011;16851;53.564;8.112;2023-08-30T07:14:33;11.63;;;9.88;;
30010;SDS011;16851;53.564;8.112;2023-08-30T07:19:35;13.63;;;9.27;;
30010;SDS011;16851;53.564;8.112;2023-08-30T07:24:37;14.63;;;9.63;;
30010;SDS011;16851;53.564;8.112;2023-08-30T07:29:41;10.82;;;9.05;;
30010;SDS011;16851;53.564;8.112;2023-08-30T07:34:46;12.85;;;8.85;;
30010;SDS011;16851;53.564;8.112;2023-08-30T07:39:51;12.68;;;8.73;;
30010;SDS011;16851;53.564;8.112;2023-08-30T07:44:55;16.13;;;8.55;;
30010;SDS011;16851;53.564;8.112;2023-08-30T07:49:59;11.57;;;7.30;;
30010;SDS011;16851;53.564;8.112;2023-08-30T07:55:01;11.07;;;7.95;;
30010;SDS011;16851;53.564;8.112;2023-08-30T08:00:03;10.60;;;7.38;;
30010;SDS011;16851;53.564;8.112;2023-08-30T08:05:12;9.65;;;7.00;;
30010;SDS011;16851;53.564;8.112;2023-08-30T08:10:14;12.82;;;7.90;;
30010;SDS011;16851;53.564;8.112;2023-08-30T08:15:18;24.83;;;10.65;;
30010;SDS011;16851;53.564;8.112;2023-08-30T08:20:22;9.73;;;7.00;;
30010;SDS011;16851;53.564;8.112;2023-08-30T08:25:26;10.45;;;6.95;;
30010;SDS011;16851;53.564;8.112;2023-08-30T08:30:28;8.63;;;6.65;;
30010;SDS011;16851;53.564;8.112;2023-08-30T08:35:30;10.00;;;7.25;;
30010;SDS011;16851;53.564;8.112;2023-08-30T08:40:37;9.73;;;7.20;;
30010;SDS011;16851;53.564;8.112;2023-08-30T08:45:44;11.98;;;7.60;;
30010;SDS011;16851;53.564;8.112;2023-08-30T08:50:46;11.65;;;8.35;;
30010;SDS011;16851;53.564;8.112;2023-08-30T08:55:52;12.65;;;7.53;;
30010;SDS011;16851;53.564;8.112;2023-08-30T09:00:55;11.07;;;8.55;;
30010;SDS011;16851;53.564;8.112;2023-08-30T09:05:57;11.30;;;8.27;;
30010;SDS011;16851;53.564;8.112;2023-08-30T09:10:59;11.60;;;8.35;;
30010;SDS011;16851;53.564;8.112;2023-08-30T09:16:01;11.55;;;9.02;;
30010;SDS011;16851;53.564;8.112;2023-08-30T09:21:06;12.23;;;9.25;;
30010;SDS011;16851;53.564;8.112;2023-08-30T09:26:16;12.10;;;9.38;;
30010;SDS011;16851;53.564;8.112;2023-08-30T09:31:20;11.60;;;9.40;;
30010;SDS011;16851;53.564;8.112;2023-08-30T09:36:23;15.52;;;9.73;;
30010;SDS011;16851;53.564;8.112;2023-08-30T09:41:25;10.80;;;7.75;;
30010;SDS011;16851;53.564;8.112;2023-08-30T09:46:29;12.80;;;8.35;;
30010;SDS011;16851;53.564;8.112;2023-08-30T09:51:53;11.30;;;8.40;;
30010;SDS011;16851;53.564;8.112;2023-08-30T09:56:56;12.57;;;7.55;;
30010;SDS011;16851;53.564;8.112;2023-08-30T10:01:59;12.45;;;8.07;;
30010;SDS011;16851;53.564;8.112;2023-08-30T10:07:04;10.93;;;8.18;;
30010;SDS011;16851;53.564;8.112;2023-08-30T10:12:09;14.15;;;9.52;;
30010;SDS011;16851;53.564;8.112;2023-08-30T10:17:12;12.82;;;8.50;;
30010;SDS011;16851;53.564;8.112;2023-08-30T10:22:16;14.45;;;9.40;;
30010;SDS011;16851;53.564;8.112;2023-08-30T10:27:20;18.20;;;8.85;;
30010;SDS011;16851;53.564;8.112;2023-08-30T10:32:23;10.43;;;8.10;;
30010;SDS011;16851;53.564;8.112;2023-08-30T10:37:27;13.63;;;9.55;;
30010;SDS011;16851;53.564;8.112;2023-08-30T10:42:34;12.90;;;10.18;;
30010;SDS011;16851;53.564;8.112;2023-08-30T10:47:36;13.68;;;10.32;;
30010;SDS011;16851;53.564;8.112;2023-08-30T10:52:40;15.57;;;11.13;;
30010;SDS011;16851;53.564;8.112;2023-08-30T10:57:46;13.27;;;10.63;;
30010;SDS011;16851;53.564;8.112;2023-08-30T11:03:02;12.15;;;8.93;;
30010;SDS011;16851;53.564;8.112;2023-08-30T11:08:05;11.35;;;8.38;;
30010;SDS011;16851;53.564;8.112;2023-08-30T11:13:14;13.10;;;10.48;;
30010;SDS011;16851;53.564;8.112;2023-08-30T11:18:20;12.77;;;9.60;;
30010;SDS011;16851;53.564;8.112;2023-08-30T11:23:22;15.10;;;9.15;;
30010;SDS011;16851;53.564;8.112;2023-08-30T11:28:29;10.35;;;7.32;;
30010;SDS011;16851;53.564;8.112;2023-08-30T11:33:33;9.40;;;7.45;;
30010;SDS011;16851;53.564;8.112;2023-08-30T11:38:35;12.48;;;7.70;;
30010;SDS011;16851;53.564;8.112;2023-08-30T11:43:39;11.20;;;8.32;;
30010;SDS011;16851;53.564;8.112;2023-08-30T11:48:43;15.00;;;8.93;;
30010;SDS011;16851;53.564;8.112;2023-08-30T11:53:49;11.10;;;7.50;;
30010;SDS011;16851;53.564;8.112;2023-08-30T11:58:54;11.93;;;8.02;;
30010;SDS011;16851;53.564;8.112;2023-08-30T12:04:00;11.85;;;8.50;;
30010;SDS011;16851;53.564;8.112;2023-08-30T12:09:12;14.73;;;8.93;;
30010;SDS011;16851;53.564;8.112;2023-08-30T12:14:14;10.13;;;7.50;;
30010;SDS011;16851;53.564;8.112;2023-08-30T12:19:19;13.05;;;8.30;;
30010;SDS011;16851;53.564;8.112;2023-08-30T12:24:21;13.02;;;8.43;;
30010;SDS011;16851;53.564;8.112;2023-08-30T12:29:24;11.10;;;7.57;;
30010;SDS011;16851;53.564;8.112;2023-08-30T12:34:26;10.63;;;7.70;;
30010;SDS011;16851;53.564;8.112;2023-08-30T12:39:31;13.27;;;7.95;;
30010;SDS011;16851;53.564;8.112;2023-08-30T12:44:35;10.38;;;7.18;;
30010;SDS011;16851;53.564;8.112;2023-08-30T12:49:39;9.20;;;6.85;;
30010;SDS011;16851;53.564;8.112;2023-08-30T12:54:43;10.75;;;6.30;;
30010;SDS011;16851;53.564;8.112;2023-08-30T12:59:45;15.60;;;7.43;;
30010;SDS011;16851;53.564;8.112;2023-08-30T13:04:47;12.32;;;8.13;;
30010;SDS011;16851;53.564;8.112;2023-08-30T13:09:51;10.93;;;7.38;;
30010;SDS011;16851;53.564;8.112;2023-08-30T13:14:56;14.13;;;8.55;;
30010;SDS011;16851;53.564;8.112;2023-08-30T13:20:00;14.43;;;9.18;;
30010;SDS011;16851;53.564;8.112;2023-08-30T13:25:04;12.13;;;8.35;;
30010;SDS011;16851;53.564;8.112;2023-08-30T13:30:11;13.63;;;8.60;;
30010;SDS011;16851;53.564;8.112;2023-08-30T13:35:15;15.02;;;8.48;;
30010;SDS011;16851;53.564;8.112;2023-08-30T13:40:19;11.57;;;8.90;;
30010;SDS011;16851;53.564;8.112;2023-08-30T13:45:21;13.02;;;9.35;;
30010;SDS011;16851;53.564;8.112;2023-08-30T13:50:23;15.52;;;9.90;;
30010;SDS011;16851;53.564;8.112;2023-08-30T13:55:27;13.25;;;10.52;;
30010;SDS011;16851;53.564;8.112;2023-08-30T14:00:29;13.65;;;9.82;;
30010;SDS011;16851;53.564;8.112;2023-08-30T14:05:34;16.23;;;11.98;;
30010;SDS011;16851;53.564;8.112;2023-08-30T14:10:36;17.30;;;12.90;;
30010;SDS011;16851;53.564;8.112;2023-08-30T14:15:38;23.15;;;13.75;;
30010;SDS011;16851;53.564;8.112;2023-08-30T14:20:43;18.60;;;12.88;;
30010;SDS011;16851;53.564;8.112;2023-08-30T14:25:45;18.85;;;14.25;;
30010;SDS011;16851;53.564;8.112;2023-08-30T14:30:46;18.33;;;14.48;;
30010;SDS011;16851;53.564;8.112;2023-08-30T14:35:53;19.02;;;13.77;;
30010;SDS011;16851;53.564;8.112;2023-08-30T14:40:58;17.38;;;13.48;;
30010;SDS011;16851;53.564;8.112;2023-08-30T14:46:06;19.27;;;16.40;;
30010;SDS011;16851;53.564;8.112;2023-08-30T14:51:15;20.77;;;17.60;;
30010;SDS011;16851;53.564;8.112;2023-08-30T14:56:16;22.88;;;19.75;;
30010;SDS011;16851;53.564;8.112;2023-08-30T15:01:20;23.40;;;20.35;;
30010;SDS011;16851;53.564;8.112;2023-08-30T15:06:22;28.40;;;20.55;;
30010;SDS011;16851;53.564;8.112;2023-08-30T15:11:24;28.92;;;21.95;;
30010;SDS011;16851;53.564;8.112;2023-08-30T15:16:26;31.73;;;24.10;;
30010;SDS011;16851;53.564;8.112;2023-08-30T15:21:28;29.73;;;23.48;;
30010;SDS011;16851;53.564;8.112;2023-08-30T15:26:34;32.03;;;25.88;;
30010;SDS011;16851;53.564;8.112;2023-08-30T15:31:38;35.50;;;28.02;;
30010;SDS011;16851;53.564;8.112;2023-08-30T15:36:43;38.13;;;28.75;;
30010;SDS011;16851;53.564;8.112;2023-08-30T15:41:47;32.30;;;27.30;;
30010;SDS011;16851;53.564;8.112;2023-08-30T15:46:50;38.25;;;29.67;;
30010;SDS011;16851;53.564;8.112;2023-08-30T15:51:54;35.67;;;29.90;;
30010;SDS011;16851;53.564;8.112;2023-08-30T15:56:55;39.83;;;30.42;;
30010;SDS011;16851;53.564;8.112;2023-08-30T16:02:00;37.15;;;30.88;;
30010;SDS011;16851;53.564;8.112;2023-08-30T16:07:02;39.35;;;31.35;;
30010;SDS011;16851;53.564;8.112;2023-08-30T16:12:09;36.35;;;30.30;;
30010;SDS011;16851;53.564;8.112;2023-08-30T16:17:11;34.92;;;28.25;;
30010;SDS011;16851;53.564;8.112;2023-08-30T16:22:12;42.47;;;30.50;;
30010;SDS011;16851;53.564;8.112;2023-08-30T16:27:19;30.88;;;24.38;;
30010;SDS011;16851;53.564;8.112;2023-08-30T16:32:21;23.92;;;20.38;;
30010;SDS011;16851;53.564;8.112;2023-08-30T16:37:28;20.23;;;17.30;;
30010;SDS011;16851;53.564;8.112;2023-08-30T16:42:30;15.48;;;13.88;;
30010;SDS011;16851;53.564;8.112;2023-08-30T16:47:32;14.88;;;13.27;;
30010;SDS011;16851;53.564;8.112;2023-08-30T16:52:43;18.60;;;13.95;;
30010;SDS011;16851;53.564;8.112;2023-08-30T16:57:48;17.40;;;15.25;;
30010;SDS011;16851;53.564;8.112;2023-08-30T17:02:50;41.42;;;21.17;;
30010;SDS011;16851;53.564;8.112;2023-08-30T17:07:55;38.55;;;27.08;;
30010;SDS011;16851;53.564;8.112;2023-08-30T17:12:59;31.67;;;26.20;;
30010;SDS011;16851;53.564;8.112;2023-08-30T17:18:06;34.10;;;26.02;;
30010;SDS011;16851;53.564;8.112;2023-08-30T17:23:08;41.65;;;30.17;;
30010;SDS011;16851;53.564;8.112;2023-08-30T17:28:13;22.88;;;19.38;;
30010;SDS011;16851;53.564;8.112;2023-08-30T17:33:15;23.02;;;18.38;;
30010;SDS011;16851;53.564;8.112;2023-08-30T17:38:16;22.92;;;19.05;;
30010;SDS011;16851;53.564;8.112;2023-08-30T17:43:23;20.98;;;16.80;;
30010;SDS011;16851;53.564;8.112;2023-08-30T17:48:25;23.17;;;17.42;;
30010;SDS011;16851;53.564;8.112;2023-08-30T17:53:29;17.75;;;14.77;;
30010;SDS011;16851;53.564;8.112;2023-08-30T17:58:31;19.58;;;15.93;;
30010;SDS011;16851;53.564;8.112;2023-08-30T18:03:36;19.77;;;15.48;;
30010;SDS011;16851;53.564;8.112;2023-08-30T18:08:42;17.30;;;14.00;;
30010;SDS011;16851;53.564;8.112;2023-08-30T18:13:48;13.45;;;11.57;;
30010;SDS011;16851;53.564;8.112;2023-08-30T18:18:52;13.65;;;10.82;;
30010;SDS011;16851;53.564;8.112;2023-08-30T18:29:25;10.48;;;8.88;;
30010;SDS011;16851;53.564;8.112;2023-08-30T18:34:32;8.82;;;6.82;;
30010;SDS011;16851;53.564;8.112;2023-08-30T18:39:34;11.30;;;9.63;;
30010;SDS011;16851;53.564;8.112;2023-08-30T18:44:36;14.35;;;9.95;;
30010;SDS011;16851;53.564;8.112;2023-08-30T18:49:42;8.00;;;7.20;;
30010;SDS011;16851;53.564;8.112;2023-08-30T18:54:44;11.52;;;9.80;;
30010;SDS011;16851;53.564;8.112;2023-08-30T18:59:48;10.00;;;8.43;;
30010;SDS011;16851;53.564;8.112;2023-08-30T19:04:52;11.10;;;9.82;;
30010;SDS011;16851;53.564;8.112;2023-08-30T19:09:54;8.00;;;6.75;;
30010;SDS011;16851;53.564;8.112;2023-08-30T19:14:56;8.77;;;6.93;;
30010;SDS011;16851;53.564;8.112;2023-08-30T19:19:58;6.78;;;6.00;;
30010;SDS011;16851;53.564;8.112;2023-08-30T19:25:05;5.80;;;5.05;;
30010;SDS011;16851;53.564;8.112;2023-08-30T19:30:16;5.75;;;4.50;;
30010;SDS011;16851;53.564;8.112;2023-08-30T19:35:18;5.80;;;4.38;;
30010;SDS011;16851;53.564;8.112;2023-08-30T19:40:20;5.30;;;4.80;;
30010;SDS011;16851;53.564;8.112;2023-08-30T19:45:22;4.68;;;3.97;;
30010;SDS011;16851;53.564;8.112;2023-08-30T19:50:29;6.45;;;4.78;;
30010;SDS011;16851;53.564;8.112;2023-08-30T19:55:33;6.00;;;5.35;;
30010;SDS011;16851;53.564;8.112;2023-08-30T20:00:40;6.85;;;5.43;;
30010;SDS011;16851;53.564;8.112;2023-08-30T20:05:49;7.45;;;6.60;;
30010;SDS011;16851;53.564;8.112;2023-08-30T20:10:59;7.85;;;6.00;;
30010;SDS011;16851;53.564;8.112;2023-08-30T20:16:02;9.60;;;6.32;;
30010;SDS011;16851;53.564;8.112;2023-08-30T20:21:11;8.27;;;7.18;;
30010;SDS011;16851;53.564;8.112;2023-08-30T20:26:21;7.72;;;5.45;;
30010;SDS011;16851;53.564;8.112;2023-08-30T20:31:23;10.23;;;8.05;;
30010;SDS011;16851;53.564;8.112;2023-08-30T20:36:27;9.98;;;8.90;;
30010;SDS011;16851;53.564;8.112;2023-08-30T20:41:41;11.57;;;9.38;;
30010;SDS011;16851;53.564;8.112;2023-08-30T20:46:42;12.77;;;11.45;;
30010;SDS011;16851;53.564;8.112;2023-08-30T20:51:47;16.90;;;11.18;;
30010;SDS011;16851;53.564;8.112;2023-08-30T20:56:51;12.52;;;11.13;;
30010;SDS011;16851;53.564;8.112;2023-08-30T21:01:56;14.57;;;12.43;;
30010;SDS011;16851;53.564;8.112;2023-08-30T21:07:00;13.55;;;11.80;;
30010;SDS011;16851;53.564;8.112;2023-08-30T21:12:04;14.50;;;13.02;;
30010;SDS011;16851;53.564;8.112;2023-08-30T21:17:06;14.77;;;13.10;;
30010;SDS011;16851;53.564;8.112;2023-08-30T21:22:11;15.95;;;14.25;;
30010;SDS011;16851;53.564;8.112;2023-08-30T21:27:16;18.27;;;14.80;;
30010;SDS011;16851;53.564;8.112;2023-08-30T21:32:18;24.30;;;17.25;;
30010;SDS011;16851;53.564;8.112;2023-08-30T21:37:22;16.98;;;15.15;;
30010;SDS011;16851;53.564;8.112;2023-08-30T21:42:24;20.73;;;16.38;;
30010;SDS011;16851;53.564;8.112;2023-08-30T21:47:28;16.52;;;14.50;;
30010;SDS011;16851;53.564;8.112;2023-08-30T21:52:32;18.67;;;13.43;;
30010;SDS011;16851;53.564;8.112;2023-08-30T21:57:34;16.67;;;14.98;;
30010;SDS011;16851;53.564;8.112;2023-08-30T22:02:38;17.38;;;15.25;;
30010;SDS011;16851;53.564;8.112;2023-08-30T22:07:42;19.75;;;16.30;;
30010;SDS011;16851;53.564;8.112;2023-08-30T22:12:46;18.38;;;14.38;;
30010;SDS011;16851;53.564;8.112;2023-08-30T22:17:50;17.92;;;14.40;;
30010;SDS011;16851;53.564;8.112;2023-08-30T22:22:58;15.43;;;13.05;;
30010;SDS011;16851;53.564;8.112;2023-08-30T22:28:06;12.88;;;11.18;;
30010;SDS011;16851;53.564;8.112;2023-08-30T22:33:10;13.52;;;10.90;;
30010;SDS011;16851;53.564;8.112;2023-08-30T22:38:14;11.43;;;9.98;;
30010;SDS011;16851;53.564;8.112;2023-08-30T22:43:18;9.52;;;8.07;;
30010;SDS011;16851;53.564;8.112;2023-08-30T22:48:22;11.38;;;8.70;;
30010;SDS011;16851;53.564;8.112;2023-08-30T22:53:23;12.20;;;8.55;;
30010;SDS011;16851;53.564;8.112;2023-08-30T22:58:25;13.85;;;9.52;;
30010;SDS011;16851;53.564;8.112;2023-08-30T23:03:27;11.65;;;7.45;;
30010;SDS011;16851;53.564;8.112;2023-08-30T23:08:29;13.82;;;8.90;;
30010;SDS011;16851;53.564;8.112;2023-08-30T23:13:36;14.07;;;8.63;;
30010;SDS011;16851;53.564;8.112;2023-08-30T23:18:41;12.55;;;8.23;;
30010;SDS011;16851;53.564;8.112;2023-08-30T23:23:48;12.85;;;8.75;;
30010;SDS011;16851;53.564;8.112;2023-08-30T23:28:50;11.45;;;7.88;;
30010;SDS011;16851;53.564;8.112;2023-08-30T23:33:52;16.00;;;8.13;;
30010;SDS011;16851;53.564;8.112;2023-08-30T23:38:58;10.95;;;7.63;;
30010;SDS011;16851;53.564;8.112;2023-08-30T23:44:02;13.88;;;6.35;;
30010;SDS011;16851;53.564;8.112;2023-08-30T23:49:04;7.80;;;5.00;;
30010;SDS011;16851;53.564;8.112;2023-08-30T23:54:06;10.18;;;4.35;;
30010;SDS011;16851;53.564;8.112;2023-08-30T23:59:13;10.82;;;4.88;;
